sensor_id;sensor_type;location;lat;lon;timestamp;pressure;altitude;pressure_sealevel;temperature;humidity
11349;BME280;5729;43.570;27.826;2022-10-30T00:00:27;99768.25;;;11.55;100.00
11349;BME280;5729;43.570;27.826;2022-10-30T00:02:53;99771.72;;;11.56;100.00
11349;BME280;5729;43.570;27.826;2022-10-30T00:05:18;99768.25;;;11.55;100.00
11349;BME280;5729;43.570;27.826;2022-10-30T00:07:46;99767.78;;;11.53;100.00
11349;BME280;5729;43.570;27.826;2022-10-30T00:10:11;99772.41;;;11.53;100.00
11349;BME280;5729;43.570;27.826;2022-10-30T00:12:37;99765.38;;;11.48;100.00
11349;BME280;5729;43.570;27.826;2022-10-30T00:15:03;99763.59;;;11.40;100.00
11349;BME280;5729;43.570;27.826;2022-10-30T00:17:28;99750.97;;;11.28;100.00
11349;BME280;5729;43.570;27.826;2022-10-30T00:19:54;99753.78;;;11.20;100.00
11349;BME280;5729;43.570;27.826;2022-10-30T00:22:19;99747.53;;;11.16;100.00
11349;BME280;5729;43.570;27.826;2022-10-30T00:24:45;99756.47;;;11.20;100.00
11349;BME280;5729;43.570;27.826;2022-10-30T00:27:10;99749.09;;;11.17;100.00
11349;BME280;5729;43.570;27.826;2022-10-30T00:29:35;99742.03;;;11.12;100.00
11349;BME280;5729;43.570;27.826;2022-10-30T00:32:01;99741.47;;;11.07;100.00
11349;BME280;5729;43.570;27.826;2022-10-30T00:34:26;99743.03;;;11.08;100.00
11349;BME280;5729;43.570;27.826;2022-10-30T00:36:52;99738.44;;;11.08;100.00
11349;BME280;5729;43.570;27.826;2022-10-30T00:39:17;99740.00;;;11.09;100.00
11349;BME280;5729;43.570;27.826;2022-10-30T00:41:43;99736.28;;;11.14;100.00
11349;BME280;5729;43.570;27.826;2022-10-30T00:44:49;99727.41;;;11.13;100.00
11349;BME280;5729;43.570;27.826;2022-10-30T00:47:21;99730.34;;;11.08;100.00
11349;BME280;5729;43.570;27.826;2022-10-30T00:50:01;99723.75;;;11.06;100.00
11349;BME280;5729;43.570;27.826;2022-10-30T00:52:30;99725.28;;;11.07;100.00
11349;BME280;5729;43.570;27.826;2022-10-30T00:55:01;99717.97;;;11.07;100.00
11349;BME280;5729;43.570;27.826;2022-10-30T00:57:28;99714.84;;;11.05;100.00
11349;BME280;5729;43.570;27.826;2022-10-30T00:59:54;99693.75;;;10.95;100.00
11349;BME280;5729;43.570;27.826;2022-10-30T01:02:20;99688.50;;;10.86;100.00
11349;BME280;5729;43.570;27.826;2022-10-30T01:04:47;99708.13;;;10.99;100.00
11349;BME280;5729;43.570;27.826;2022-10-30T01:07:15;99711.16;;;10.98;100.00
11349;BME280;5729;43.570;27.826;2022-10-30T01:09:42;99700.72;;;10.96;100.00
11349;BME280;5729;43.570;27.826;2022-10-30T01:12:08;99696.59;;;10.86;100.00
11349;BME280;5729;43.570;27.826;2022-10-30T01:14:39;99696.03;;;10.93;100.00
11349;BME280;5729;43.570;27.826;2022-10-30T01:17:34;99703.13;;;10.85;100.00
11349;BME280;5729;43.570;27.826;2022-10-30T01:28:07;99688.31;;;10.79;100.00
11349;BME280;5729;43.570;27.826;2022-10-30T01:38:40;99684.41;;;10.65;100.00
11349;BME280;5729;43.570;27.826;2022-10-30T01:41:07;99686.81;;;10.54;100.00
11349;BME280;5729;43.570;27.826;2022-10-30T01:43:33;99700.84;;;10.60;100.00
11349;BME280;5729;43.570;27.826;2022-10-30T01:46:23;99689.69;;;10.61;100.00
11349;BME280;5729;43.570;27.826;2022-10-30T01:49:25;99689.16;;;10.55;100.00
11349;BME280;5729;43.570;27.826;2022-10-30T01:52:12;99677.63;;;10.43;100.00
11349;BME280;5729;43.570;27.826;2022-10-30T01:54:57;99695.56;;;10.51;100.00
11349;BME280;5729;43.570;27.826;2022-10-30T02:00:08;99681.38;;;10.38;100.00
11349;BME280;5729;43.570;27.826;2022-10-30T02:02:34;99686.84;;;10.42;100.00
11349;BME280;5729;43.570;27.826;2022-10-30T02:05:00;99678.44;;;10.31;100.00
11349;BME280;5729;43.570;27.826;2022-10-30T02:07:26;99683.34;;;10.41;100.00
11349;BME280;5729;43.570;27.826;2022-10-30T02:09:52;99646.13;;;10.19;100.00
11349;BME280;5729;43.570;27.826;2022-10-30T02:12:19;99682.13;;;10.39;100.00
11349;BME280;5729;43.570;27.826;2022-10-30T02:14:48;99670.13;;;10.36;100.00
11349;BME280;5729;43.570;27.826;2022-10-30T02:17:15;99676.16;;;10.45;100.00
11349;BME280;5729;43.570;27.826;2022-10-30T02:19:41;99681.09;;;10.43;100.00
11349;BME280;5729;43.570;27.826;2022-10-30T02:22:07;99682.22;;;10.42;100.00
11349;BME280;5729;43.570;27.826;2022-10-30T02:24:32;99672.25;;;10.43;100.00
11349;BME280;5729;43.570;27.826;2022-10-30T02:26:58;99681.44;;;10.42;100.00
11349;BME280;5729;43.570;27.826;2022-10-30T02:29:23;99676.06;;;10.42;100.00
11349;BME280;5729;43.570;27.826;2022-10-30T02:31:49;99672.03;;;10.36;100.00
11349;BME280;5729;43.570;27.826;2022-10-30T02:34:16;99667.88;;;10.38;100.00
11349;BME280;5729;43.570;27.826;2022-10-30T02:36:41;99672.50;;;10.38;100.00
11349;BME280;5729;43.570;27.826;2022-10-30T02:39:07;99667.22;;;10.29;100.00
11349;BME280;5729;43.570;27.826;2022-10-30T02:41:32;99662.16;;;10.28;100.00
11349;BME280;5729;43.570;27.826;2022-10-30T02:43:58;99664.84;;;10.28;100.00
11349;BME280;5729;43.570;27.826;2022-10-30T02:46:24;99658.25;;;10.25;100.00
11349;BME280;5729;43.570;27.826;2022-10-30T02:48:49;99666.34;;;10.25;100.00
11349;BME280;5729;43.570;27.826;2022-10-30T02:51:15;99658.59;;;10.24;100.00
11349;BME280;5729;43.570;27.826;2022-10-30T02:53:40;99662.41;;;10.23;100.00
11349;BME280;5729;43.570;27.826;2022-10-30T02:56:07;99659.25;;;10.21;100.00
11349;BME280;5729;43.570;27.826;2022-10-30T02:58:33;99661.16;;;10.20;100.00
11349;BME280;5729;43.570;27.826;2022-10-30T03:01:10;99659.59;;;10.19;100.00
11349;BME280;5729;43.570;27.826;2022-10-30T03:03:36;99664.31;;;10.22;100.00
11349;BME280;5729;43.570;27.826;2022-10-30T03:06:03;99657.69;;;10.19;100.00
11349;BME280;5729;43.570;27.826;2022-10-30T03:08:29;99664.09;;;10.15;100.00
11349;BME280;5729;43.570;27.826;2022-10-30T03:11:03;99639.06;;;10.02;100.00
11349;BME280;5729;43.570;27.826;2022-10-30T03:13:31;99657.22;;;10.17;100.00
11349;BME280;5729;43.570;27.826;2022-10-30T03:16:01;99665.53;;;10.12;100.00
11349;BME280;5729;43.570;27.826;2022-10-30T03:18:26;99657.47;;;10.12;100.00
11349;BME280;5729;43.570;27.826;2022-10-30T03:21:00;99665.88;;;10.23;100.00
11349;BME280;5729;43.570;27.826;2022-10-30T03:23:27;99669.03;;;10.25;100.00
11349;BME280;5729;43.570;27.826;2022-10-30T03:25:57;99667.78;;;10.23;100.00
11349;BME280;5729;43.570;27.826;2022-10-30T03:28:24;99657.22;;;10.17;100.00
11349;BME280;5729;43.570;27.826;2022-10-30T03:30:51;99653.31;;;10.15;100.00
11349;BME280;5729;43.570;27.826;2022-10-30T03:33:22;99649.38;;;10.12;100.00
11349;BME280;5729;43.570;27.826;2022-10-30T03:35:47;99657.00;;;10.10;100.00
11349;BME280;5729;43.570;27.826;2022-10-30T03:38:12;99646.56;;;10.09;100.00
11349;BME280;5729;43.570;27.826;2022-10-30T03:40:39;99642.97;;;10.05;100.00
11349;BME280;5729;43.570;27.826;2022-10-30T03:43:05;99658.78;;;10.06;100.00
11349;BME280;5729;43.570;27.826;2022-10-30T03:45:33;99645.66;;;10.05;100.00
11349;BME280;5729;43.570;27.826;2022-10-30T03:48:00;99650.38;;;10.08;100.00
11349;BME280;5729;43.570;27.826;2022-10-30T03:50:25;99651.16;;;10.08;100.00
11349;BME280;5729;43.570;27.826;2022-10-30T03:52:56;99651.16;;;10.08;100.00
11349;BME280;5729;43.570;27.826;2022-10-30T03:55:22;99638.38;;;9.93;100.00
11349;BME280;5729;43.570;27.826;2022-10-30T03:57:48;99631.53;;;9.96;100.00
11349;BME280;5729;43.570;27.826;2022-10-30T04:00:14;99641.97;;;9.97;100.00
11349;BME280;5729;43.570;27.826;2022-10-30T04:02:46;99633.09;;;9.97;100.00
11349;BME280;5729;43.570;27.826;2022-10-30T04:05:17;99628.50;;;9.97;100.00
11349;BME280;5729;43.570;27.826;2022-10-30T04:07:43;99638.28;;;10.02;100.00
11349;BME280;5729;43.570;27.826;2022-10-30T04:10:10;99630.53;;;10.00;100.00
11349;BME280;5729;43.570;27.826;2022-10-30T04:12:35;99626.06;;;9.92;100.00
11349;BME280;5729;43.570;27.826;2022-10-30T04:15:01;99640.63;;;10.03;100.00
11349;BME280;5729;43.570;27.826;2022-10-30T04:17:26;99637.59;;;10.05;100.00
11349;BME280;5729;43.570;27.826;2022-10-30T04:19:52;99629.09;;;10.03;100.00
11349;BME280;5729;43.570;27.826;2022-10-30T04:22:18;99615.28;;;9.92;100.00
11349;BME280;5729;43.570;27.826;2022-10-30T04:24:43;99631.44;;;10.04;100.00
11349;BME280;5729;43.570;27.826;2022-10-30T04:27:10;99603.28;;;9.90;100.00
11349;BME280;5729;43.570;27.826;2022-10-30T04:29:37;99619.44;;;10.02;100.00
11349;BME280;5729;43.570;27.826;2022-10-30T04:32:03;99624.03;;;10.01;100.00
11349;BME280;5729;43.570;27.826;2022-10-30T04:34:28;99633.44;;;10.07;100.00
11349;BME280;5729;43.570;27.826;2022-10-30T04:36:54;99630.28;;;10.05;100.00
11349;BME280;5729;43.570;27.826;2022-10-30T04:39:19;99630.75;;;10.07;100.00
11349;BME280;5729;43.570;27.826;2022-10-30T04:41:45;99620.88;;;9.99;100.00
11349;BME280;5729;43.570;27.826;2022-10-30T04:44:10;99624.81;;;10.02;100.00
11349;BME280;5729;43.570;27.826;2022-10-30T04:46:36;99626.28;;;9.99;100.00
11349;BME280;5729;43.570;27.826;2022-10-30T04:49:01;99617.84;;;10.01;100.00
11349;BME280;5729;43.570;27.826;2022-10-30T04:51:27;99621.09;;;10.06;100.00
11349;BME280;5729;43.570;27.826;2022-10-30T04:53:52;99634.34;;;10.11;100.00
11349;BME280;5729;43.570;27.826;2022-10-30T04:56:18;99624.22;;;10.08;100.00
11349;BME280;5729;43.570;27.826;2022-10-30T04:58:44;99630.41;;;10.09;100.00
11349;BME280;5729;43.570;27.826;2022-10-30T05:01:09;99628.63;;;10.13;100.00
11349;BME280;5729;43.570;27.826;2022-10-30T05:03:35;99621.31;;;10.13;100.00
11349;BME280;5729;43.570;27.826;2022-10-30T05:08:27;99610.63;;;10.17;100.00
11349;BME280;5729;43.570;27.826;2022-10-30T05:10:53;99605.38;;;10.21;100.00
11349;BME280;5729;43.570;27.826;2022-10-30T05:13:19;99634.78;;;10.38;100.00
11349;BME280;5729;43.570;27.826;2022-10-30T05:15:44;99641.47;;;10.44;100.00
11349;BME280;5729;43.570;27.826;2022-10-30T05:18:10;99644.16;;;10.44;100.00
11349;BME280;5729;43.570;27.826;2022-10-30T05:20:35;99638.19;;;10.50;100.00
11349;BME280;5729;43.570;27.826;2022-10-30T05:23:00;99634.81;;;10.53;100.00
11349;BME280;5729;43.570;27.826;2022-10-30T05:25:27;99643.00;;;10.57;100.00
11349;BME280;5729;43.570;27.826;2022-10-30T05:28:03;99649.97;;;10.58;100.00
11349;BME280;5729;43.570;27.826;2022-10-30T05:30:30;99641.19;;;10.61;100.00
11349;BME280;5729;43.570;27.826;2022-10-30T05:33:04;99647.56;;;10.69;100.00
11349;BME280;5729;43.570;27.826;2022-10-30T05:35:31;99643.59;;;10.78;100.00
11349;BME280;5729;43.570;27.826;2022-10-30T05:37:59;99637.72;;;10.88;100.00
11349;BME280;5729;43.570;27.826;2022-10-30T05:40:25;99643.22;;;10.92;100.00
11349;BME280;5729;43.570;27.826;2022-10-30T05:42:50;99644.06;;;10.96;100.00
11349;BME280;5729;43.570;27.826;2022-10-30T05:45:16;99650.03;;;11.02;100.00
11349;BME280;5729;43.570;27.826;2022-10-30T05:47:42;99653.69;;;11.09;100.00
11349;BME280;5729;43.570;27.826;2022-10-30T05:50:08;99648.03;;;11.14;100.00
11349;BME280;5729;43.570;27.826;2022-10-30T05:52:34;99638.63;;;11.08;100.00
11349;BME280;5729;43.570;27.826;2022-10-30T05:54:59;99661.81;;;11.25;100.00
11349;BME280;5729;43.570;27.826;2022-10-30T05:57:29;99656.13;;;11.30;100.00
11349;BME280;5729;43.570;27.826;2022-10-30T05:59:55;99660.16;;;11.36;100.00
11349;BME280;5729;43.570;27.826;2022-10-30T06:02:20;99654.50;;;11.41;100.00
11349;BME280;5729;43.570;27.826;2022-10-30T06:04:46;99659.03;;;11.53;100.00
11349;BME280;5729;43.570;27.826;2022-10-30T06:07:12;99653.19;;;11.67;100.00
11349;BME280;5729;43.570;27.826;2022-10-30T06:09:37;99650.34;;;11.75;100.00
11349;BME280;5729;43.570;27.826;2022-10-30T06:12:03;99648.97;;;11.81;100.00
11349;BME280;5729;43.570;27.826;2022-10-30T06:14:29;99650.44;;;11.94;100.00
11349;BME280;5729;43.570;27.826;2022-10-30T06:16:54;99651.94;;;12.11;100.00
11349;BME280;5729;43.570;27.826;2022-10-30T06:19:20;99649.47;;;12.22;100.00
11349;BME280;5729;43.570;27.826;2022-10-30T06:21:45;99649.72;;;12.32;100.00
11349;BME280;5729;43.570;27.826;2022-10-30T06:24:12;99637.84;;;12.37;100.00
11349;BME280;5729;43.570;27.826;2022-10-30T06:26:37;99655.28;;;12.59;100.00
11349;BME280;5729;43.570;27.826;2022-10-30T06:29:02;99651.31;;;12.72;100.00
11349;BME280;5729;43.570;27.826;2022-10-30T06:31:28;99655.38;;;12.82;100.00
11349;BME280;5729;43.570;27.826;2022-10-30T06:33:53;99660.56;;;12.90;100.00
11349;BME280;5729;43.570;27.826;2022-10-30T06:36:19;99659.06;;;12.93;100.00
11349;BME280;5729;43.570;27.826;2022-10-30T06:38:44;99667.09;;;13.08;100.00
11349;BME280;5729;43.570;27.826;2022-10-30T06:41:10;99649.00;;;13.13;100.00
11349;BME280;5729;43.570;27.826;2022-10-30T06:43:35;99655.38;;;13.20;100.00
11349;BME280;5729;43.570;27.826;2022-10-30T06:46:01;99660.22;;;13.34;100.00
11349;BME280;5729;43.570;27.826;2022-10-30T06:48:26;99659.59;;;13.40;100.00
11349;BME280;5729;43.570;27.826;2022-10-30T06:50:56;99648.06;;;13.47;100.00
11349;BME280;5729;43.570;27.826;2022-10-30T06:53:22;99652.63;;;13.66;100.00
11349;BME280;5729;43.570;27.826;2022-10-30T06:55:58;99654.06;;;13.82;100.00
11349;BME280;5729;43.570;27.826;2022-10-30T06:58:24;99640.78;;;14.00;100.00
11349;BME280;5729;43.570;27.826;2022-10-30T07:00:50;99637.06;;;14.12;100.00
11349;BME280;5729;43.570;27.826;2022-10-30T07:03:15;99643.56;;;14.34;100.00
11349;BME280;5729;43.570;27.826;2022-10-30T07:05:41;99637.22;;;14.49;100.00
11349;BME280;5729;43.570;27.826;2022-10-30T07:08:06;99623.00;;;14.59;100.00
11349;BME280;5729;43.570;27.826;2022-10-30T07:10:32;99623.63;;;14.79;100.00
11349;BME280;5729;43.570;27.826;2022-10-30T07:12:57;99618.34;;;14.93;100.00
11349;BME280;5729;43.570;27.826;2022-10-30T07:15:23;99623.94;;;15.07;100.00
11349;BME280;5729;43.570;27.826;2022-10-30T07:17:57;99608.94;;;15.24;100.00
11349;BME280;5729;43.570;27.826;2022-10-30T07:20:24;99607.91;;;15.39;100.00
11349;BME280;5729;43.570;27.826;2022-10-30T07:22:50;99610.41;;;15.55;100.00
11349;BME280;5729;43.570;27.826;2022-10-30T07:25:16;99600.03;;;15.68;100.00
11349;BME280;5729;43.570;27.826;2022-10-30T07:27:46;99605.59;;;15.85;100.00
11349;BME280;5729;43.570;27.826;2022-10-30T07:30:13;99581.13;;;15.85;100.00
11349;BME280;5729;43.570;27.826;2022-10-30T07:32:39;99593.34;;;16.20;100.00
11349;BME280;5729;43.570;27.826;2022-10-30T07:35:06;99585.91;;;17.14;100.00
11349;BME280;5729;43.570;27.826;2022-10-30T07:37:32;99578.22;;;19.30;100.00
11349;BME280;5729;43.570;27.826;2022-10-30T07:39:57;99576.72;;;21.72;100.00
11349;BME280;5729;43.570;27.826;2022-10-30T07:42:23;99583.28;;;23.62;89.89
11349;BME280;5729;43.570;27.826;2022-10-30T07:44:48;99584.34;;;25.30;68.78
11349;BME280;5729;43.570;27.826;2022-10-30T07:47:13;99585.69;;;27.22;59.22
11349;BME280;5729;43.570;27.826;2022-10-30T07:49:39;99580.56;;;28.34;49.21
11349;BME280;5729;43.570;27.826;2022-10-30T07:52:04;99583.44;;;29.09;46.32
11349;BME280;5729;43.570;27.826;2022-10-30T07:54:30;99594.19;;;29.16;42.89
11349;BME280;5729;43.570;27.826;2022-10-30T07:56:55;99584.59;;;29.50;43.00
11349;BME280;5729;43.570;27.826;2022-10-30T07:59:23;99587.34;;;29.98;40.56
11349;BME280;5729;43.570;27.826;2022-10-30T08:01:49;99587.66;;;30.00;39.38
11349;BME280;5729;43.570;27.826;2022-10-30T08:04:15;99572.72;;;29.49;39.90
11349;BME280;5729;43.570;27.826;2022-10-30T08:06:42;99579.97;;;29.47;39.52
11349;BME280;5729;43.570;27.826;2022-10-30T08:09:08;99581.38;;;29.18;40.27
11349;BME280;5729;43.570;27.826;2022-10-30T08:11:34;99569.41;;;29.03;40.85
11349;BME280;5729;43.570;27.826;2022-10-30T08:13:59;99576.66;;;29.34;41.44
11349;BME280;5729;43.570;27.826;2022-10-30T08:16:25;99583.28;;;29.60;40.91
11349;BME280;5729;43.570;27.826;2022-10-30T08:18:51;99575.19;;;29.47;40.99
11349;BME280;5729;43.570;27.826;2022-10-30T08:21:16;99563.06;;;29.36;40.50
11349;BME280;5729;43.570;27.826;2022-10-30T08:23:42;99575.16;;;28.90;40.27
11349;BME280;5729;43.570;27.826;2022-10-30T08:26:07;99580.19;;;29.10;41.22
11349;BME280;5729;43.570;27.826;2022-10-30T08:28:33;99577.53;;;29.16;40.62
11349;BME280;5729;43.570;27.826;2022-10-30T08:30:59;99571.88;;;29.01;39.96
11349;BME280;5729;43.570;27.826;2022-10-30T08:33:25;99569.63;;;28.90;40.31
11349;BME280;5729;43.570;27.826;2022-10-30T08:35:53;99568.78;;;28.66;40.29
11349;BME280;5729;43.570;27.826;2022-10-30T08:38:20;99562.91;;;28.73;42.25
11349;BME280;5729;43.570;27.826;2022-10-30T08:40:46;99569.63;;;28.12;41.79
11349;BME280;5729;43.570;27.826;2022-10-30T08:43:12;99561.41;;;28.63;41.88
11349;BME280;5729;43.570;27.826;2022-10-30T08:45:37;99564.47;;;29.07;39.94
11349;BME280;5729;43.570;27.826;2022-10-30T08:48:04;99551.16;;;29.44;40.01
11349;BME280;5729;43.570;27.826;2022-10-30T08:50:31;99552.19;;;30.39;38.29
11349;BME280;5729;43.570;27.826;2022-10-30T08:53:10;99552.47;;;30.41;36.92
11349;BME280;5729;43.570;27.826;2022-10-30T08:55:36;99554.47;;;30.25;36.96
11349;BME280;5729;43.570;27.826;2022-10-30T08:58:02;99536.78;;;30.87;37.30
11349;BME280;5729;43.570;27.826;2022-10-30T09:00:28;99545.31;;;31.33;35.87
11349;BME280;5729;43.570;27.826;2022-10-30T09:02:54;99547.44;;;32.10;34.66
11349;BME280;5729;43.570;27.826;2022-10-30T09:05:19;99547.66;;;32.07;33.88
11349;BME280;5729;43.570;27.826;2022-10-30T09:07:45;99537.28;;;32.65;33.80
11349;BME280;5729;43.570;27.826;2022-10-30T09:10:11;99544.13;;;32.95;32.70
11349;BME280;5729;43.570;27.826;2022-10-30T09:12:37;99527.44;;;33.60;31.48
11349;BME280;5729;43.570;27.826;2022-10-30T09:15:02;99527.78;;;33.96;30.80
11349;BME280;5729;43.570;27.826;2022-10-30T09:17:28;99515.63;;;34.27;29.57
11349;BME280;5729;43.570;27.826;2022-10-30T09:19:54;99508.25;;;34.35;29.58
11349;BME280;5729;43.570;27.826;2022-10-30T09:22:19;99510.00;;;34.71;28.96
11349;BME280;5729;43.570;27.826;2022-10-30T09:24:45;99491.56;;;35.15;28.65
11349;BME280;5729;43.570;27.826;2022-10-30T09:27:10;99505.25;;;35.87;27.98
11349;BME280;5729;43.570;27.826;2022-10-30T09:29:35;99503.22;;;35.88;27.10
11349;BME280;5729;43.570;27.826;2022-10-30T09:32:02;99493.50;;;36.24;27.13
11349;BME280;5729;43.570;27.826;2022-10-30T09:34:33;99495.03;;;36.55;26.01
11349;BME280;5729;43.570;27.826;2022-10-30T09:36:58;99485.28;;;37.29;25.83
11349;BME280;5729;43.570;27.826;2022-10-30T09:39:24;99489.06;;;37.13;24.99
11349;BME280;5729;43.570;27.826;2022-10-30T09:47:14;99492.59;;;36.95;24.96
11349;BME280;5729;43.570;27.826;2022-10-30T09:49:56;99472.56;;;37.47;24.83
11349;BME280;5729;43.570;27.826;2022-10-30T09:55:50;99466.69;;;38.14;23.44
11349;BME280;5729;43.570;27.826;2022-10-30T10:05:57;99436.66;;;38.75;22.17
11349;BME280;5729;43.570;27.826;2022-10-30T10:08:37;99448.44;;;38.47;23.20
11349;BME280;5729;43.570;27.826;2022-10-30T10:11:14;99442.13;;;38.15;23.18
11349;BME280;5729;43.570;27.826;2022-10-30T10:17:11;99439.59;;;37.61;23.15
11349;BME280;5729;43.570;27.826;2022-10-30T10:20:16;99431.34;;;38.00;22.68
11349;BME280;5729;43.570;27.826;2022-10-30T10:22:49;99431.16;;;38.70;21.89
11349;BME280;5729;43.570;27.826;2022-10-30T10:25:18;99434.91;;;38.46;22.70
11349;BME280;5729;43.570;27.826;2022-10-30T10:27:59;99439.31;;;38.15;22.54
11349;BME280;5729;43.570;27.826;2022-10-30T10:30:49;99422.13;;;38.45;22.64
11349;BME280;5729;43.570;27.826;2022-10-30T10:47:13;99419.28;;;37.36;22.60
11349;BME280;5729;43.570;27.826;2022-10-30T10:52:46;99416.94;;;37.21;23.07
11349;BME280;5729;43.570;27.826;2022-10-30T10:55:17;99408.88;;;37.31;23.64
11349;BME280;5729;43.570;27.826;2022-10-30T10:57:44;99404.59;;;37.05;23.29
11349;BME280;5729;43.570;27.826;2022-10-30T11:00:16;99396.50;;;37.71;23.13
11349;BME280;5729;43.570;27.826;2022-10-30T11:02:50;99395.91;;;38.24;23.20
11349;BME280;5729;43.570;27.826;2022-10-30T11:05:38;99388.06;;;38.03;22.77
11349;BME280;5729;43.570;27.826;2022-10-30T11:08:31;99382.03;;;37.67;23.19
11349;BME280;5729;43.570;27.826;2022-10-30T11:10:59;99387.09;;;37.69;23.64
11349;BME280;5729;43.570;27.826;2022-10-30T11:13:28;99378.78;;;38.22;22.48
11349;BME280;5729;43.570;27.826;2022-10-30T11:18:29;99375.88;;;38.14;22.76
11349;BME280;5729;43.570;27.826;2022-10-30T11:20:58;99380.19;;;37.83;22.52
11349;BME280;5729;43.570;27.826;2022-10-30T11:23:38;99382.00;;;37.49;23.16
11349;BME280;5729;43.570;27.826;2022-10-30T11:26:27;99372.72;;;37.72;23.13
11349;BME280;5729;43.570;27.826;2022-10-30T11:29:14;99375.66;;;37.11;22.67
11349;BME280;5729;43.570;27.826;2022-10-30T11:31:44;99364.84;;;37.15;23.01
11349;BME280;5729;43.570;27.826;2022-10-30T11:36:41;99375.91;;;37.13;23.38
11349;BME280;5729;43.570;27.826;2022-10-30T11:39:13;99376.25;;;36.85;22.98
11349;BME280;5729;43.570;27.826;2022-10-30T11:41:41;99365.91;;;36.01;24.05
11349;BME280;5729;43.570;27.826;2022-10-30T11:44:08;99366.00;;;35.90;23.92
11349;BME280;5729;43.570;27.826;2022-10-30T11:46:34;99359.59;;;36.19;24.41
11349;BME280;5729;43.570;27.826;2022-10-30T11:49:01;99361.03;;;36.31;23.91
11349;BME280;5729;43.570;27.826;2022-10-30T11:51:37;99370.16;;;35.83;24.15
11349;BME280;5729;43.570;27.826;2022-10-30T11:54:04;99363.06;;;36.07;24.29
11349;BME280;5729;43.570;27.826;2022-10-30T11:56:33;99354.16;;;35.43;24.90
11349;BME280;5729;43.570;27.826;2022-10-30T11:59:01;99354.59;;;35.47;24.37
11349;BME280;5729;43.570;27.826;2022-10-30T12:01:30;99365.25;;;35.13;25.32
11349;BME280;5729;43.570;27.826;2022-10-30T12:04:12;99356.91;;;34.10;25.75
11349;BME280;5729;43.570;27.826;2022-10-30T12:06:38;99352.28;;;34.46;26.15
11349;BME280;5729;43.570;27.826;2022-10-30T12:09:21;99347.97;;;34.45;25.96
11349;BME280;5729;43.570;27.826;2022-10-30T12:11:47;99343.56;;;34.67;25.62
11349;BME280;5729;43.570;27.826;2022-10-30T12:14:21;99352.50;;;34.59;26.13
11349;BME280;5729;43.570;27.826;2022-10-30T12:16:49;99349.03;;;34.09;26.07
11349;BME280;5729;43.570;27.826;2022-10-30T12:19:16;99345.75;;;33.54;26.51
11349;BME280;5729;43.570;27.826;2022-10-30T12:21:45;99353.69;;;32.86;27.32
11349;BME280;5729;43.570;27.826;2022-10-30T12:24:18;99356.22;;;32.72;27.84
11349;BME280;5729;43.570;27.826;2022-10-30T12:26:48;99350.22;;;33.18;27.24
11349;BME280;5729;43.570;27.826;2022-10-30T12:29:17;99355.41;;;33.48;27.33
11349;BME280;5729;43.570;27.826;2022-10-30T12:32:05;99351.03;;;33.30;27.15
11349;BME280;5729;43.570;27.826;2022-10-30T12:37:16;99356.66;;;32.65;27.98
11349;BME280;5729;43.570;27.826;2022-10-30T12:39:52;99353.03;;;32.48;28.12
11349;BME280;5729;43.570;27.826;2022-10-30T12:42:21;99349.78;;;32.18;28.53
11349;BME280;5729;43.570;27.826;2022-10-30T12:45:19;99341.19;;;31.85;29.47
11349;BME280;5729;43.570;27.826;2022-10-30T12:47:54;99345.28;;;31.89;29.08
11349;BME280;5729;43.570;27.826;2022-10-30T12:50:46;99348.34;;;31.97;29.30
11349;BME280;5729;43.570;27.826;2022-10-30T12:55:47;99341.00;;;30.90;30.66
11349;BME280;5729;43.570;27.826;2022-10-30T12:58:20;99346.63;;;30.00;31.57
11349;BME280;5729;43.570;27.826;2022-10-30T13:06:41;99347.06;;;28.39;33.99
11349;BME280;5729;43.570;27.826;2022-10-30T13:09:26;99344.97;;;27.92;35.12
11349;BME280;5729;43.570;27.826;2022-10-30T13:12:03;99328.75;;;27.48;35.88
11349;BME280;5729;43.570;27.826;2022-10-30T13:14:37;99339.09;;;27.38;35.36
11349;BME280;5729;43.570;27.826;2022-10-30T13:17:11;99343.75;;;26.96;36.13
11349;BME280;5729;43.570;27.826;2022-10-30T13:19:41;99336.31;;;26.65;36.87
11349;BME280;5729;43.570;27.826;2022-10-30T13:22:19;99343.34;;;26.48;36.17
11349;BME280;5729;43.570;27.826;2022-10-30T13:27:48;99339.78;;;26.29;36.95
11349;BME280;5729;43.570;27.826;2022-10-30T13:30:20;99332.81;;;26.16;36.94
11349;BME280;5729;43.570;27.826;2022-10-30T13:33:05;99333.06;;;25.99;38.08
11349;BME280;5729;43.570;27.826;2022-10-30T13:38:19;99345.38;;;25.77;39.86
11349;BME280;5729;43.570;27.826;2022-10-30T13:50:19;99336.31;;;25.23;39.34
11349;BME280;5729;43.570;27.826;2022-10-30T13:52:17;99335.66;;;25.19;39.55
11349;BME280;5729;43.570;27.826;2022-10-30T13:54:54;99322.50;;;25.02;40.14
11349;BME280;5729;43.570;27.826;2022-10-30T13:57:29;99322.50;;;25.02;40.43
11349;BME280;5729;43.570;27.826;2022-10-30T14:00:05;99336.22;;;24.92;40.71
11349;BME280;5729;43.570;27.826;2022-10-30T14:10:48;99322.25;;;24.74;42.82
11349;BME280;5729;43.570;27.826;2022-10-30T14:13:28;99331.53;;;24.68;41.67
11349;BME280;5729;43.570;27.826;2022-10-30T14:19:04;99327.06;;;24.48;45.05
11349;BME280;5729;43.570;27.826;2022-10-30T14:24:26;99329.50;;;24.21;45.92
11349;BME280;5729;43.570;27.826;2022-10-30T14:31:53;99335.47;;;23.81;45.88
11349;BME280;5729;43.570;27.826;2022-10-30T14:37:16;99323.50;;;23.46;48.73
11349;BME280;5729;43.570;27.826;2022-10-30T14:39:45;99324.91;;;23.38;50.04
11349;BME280;5729;43.570;27.826;2022-10-30T14:42:38;99331.81;;;23.30;50.55
11349;BME280;5729;43.570;27.826;2022-10-30T14:48:10;99315.53;;;22.94;53.79
11349;BME280;5729;43.570;27.826;2022-10-30T14:53:55;99323.09;;;22.74;60.30
11349;BME280;5729;43.570;27.826;2022-10-30T15:01:59;99326.75;;;22.38;61.61
11349;BME280;5729;43.570;27.826;2022-10-30T15:04:37;99337.22;;;22.27;61.42
11349;BME280;5729;43.570;27.826;2022-10-30T15:07:31;99330.53;;;22.12;62.74